aviador You're here:

YBCS Decoded Metar

CAIRNS in AUSTRALIA
Report Time2018-04-24 18:00:00
UTC Time2018-04-24 18:30:02
Flight Rules vfr VFR
Wind150° at 05 kt
W.Decomp.*RWY 15: 5.0 kt HW 0.6 kt LCW
RWY 12: 4.6 kt HW 2.0 kt RCW
W.Rank150° ranks 4
Current wind is below 150° avg. (9.3)
Visibility9999 m
Phenomena:N/A
Clouds:N/A
Expected CloudBase > 800 ft AGL from Temp-Dew spread
CeilingNone
Temp19°C (ISA +4)
Dew Point17°C (88% RH)
QNH1011 hPa
Density Alt820 ft
Elevation23 ft
Report Wrong Elevation
Raw Report
METAR YBCS 241800Z 15005KT CAVOK 19/17 Q1011
NOSIG=

Extra information for YBCS:More info

Metar Taf Metar & Taf Last 4 Metars F.Rules Stats Wind Profile Meteogram Temp Stats Airport Information Weather charts Add Link Nearby VenuesMetar ALERT Operation Metar Decoded Social comments